createdAt,value
2023-05-22T00:02:11.320Z,97.90
2023-05-22T00:04:41.441Z,73.82
2023-05-22T00:07:09.752Z,51.25
2023-05-22T00:09:38.058Z,55.85
2023-05-22T00:12:07.079Z,128.35
2023-05-22T00:14:35.295Z,117.85
2023-05-22T00:17:03.665Z,100.13
2023-05-22T00:19:33.384Z,72.25
2023-05-22T00:22:03.111Z,51.13
2023-05-22T00:24:31.949Z,37.80
2023-05-22T00:27:00.301Z,30.42
2023-05-22T00:29:29.186Z,124.20
2023-05-22T00:31:58.364Z,171.80
2023-05-22T00:34:26.781Z,137.63
2023-05-22T00:36:55.014Z,152.30
2023-05-22T00:39:24.682Z,156.45
2023-05-22T00:41:53.130Z,106.63
2023-05-22T00:44:21.583Z,70.20
2023-05-22T00:46:49.874Z,50.50
2023-05-22T00:49:18.134Z,34.90
2023-05-22T00:51:46.777Z,29.65
2023-05-22T00:54:15.411Z,23.95
2023-05-22T00:56:48.149Z,19.60
2023-05-22T00:59:17.023Z,17.90
2023-05-22T01:01:45.529Z,15.82
2023-05-22T01:04:15.394Z,14.98
2023-05-22T01:06:47.744Z,13.93
2023-05-22T01:09:16.297Z,13.85
2023-05-22T01:11:52.431Z,13.85
2023-05-22T01:14:31.192Z,13.13
2023-05-22T01:17:08.993Z,12.18
2023-05-22T01:20:06.837Z,13.55
2023-05-22T01:23:19.985Z,13.23
2023-05-22T01:26:20.633Z,12.38
2023-05-22T01:29:07.037Z,12.88
2023-05-22T01:31:40.703Z,12.13
2023-05-22T01:34:12.629Z,12.63
2023-05-22T01:36:42.602Z,12.57
2023-05-22T01:39:11.248Z,12.30
2023-05-22T01:41:41.796Z,12.43
2023-05-22T01:44:12.233Z,12.07
2023-05-22T01:46:42.204Z,12.60
2023-05-22T01:49:10.707Z,11.82
2023-05-22T01:51:49.742Z,12.65
2023-05-22T01:54:24.630Z,12.60
2023-05-22T01:56:57.021Z,11.65
2023-05-22T01:59:31.989Z,12.10
2023-05-22T02:02:06.166Z,12.60
2023-05-22T02:04:39.641Z,12.60
2023-05-22T02:07:12.049Z,11.60
2023-05-22T02:09:41.586Z,12.45
2023-05-22T02:12:14.307Z,12.48
2023-05-22T02:14:43.676Z,13.25
2023-05-22T02:17:13.442Z,10.57
2023-05-22T02:19:41.767Z,11.32
2023-05-22T02:22:13.737Z,11.75
2023-05-22T02:24:42.865Z,11.73
2023-05-22T02:27:11.870Z,11.27
2023-05-22T02:29:40.444Z,11.88
2023-05-22T02:32:09.360Z,11.73
2023-05-22T02:34:39.062Z,10.93
2023-05-22T02:37:07.436Z,11.35
2023-05-22T02:39:35.905Z,11.07
2023-05-22T02:42:04.869Z,11.80
2023-05-22T02:44:33.272Z,10.82
2023-05-22T02:47:01.750Z,10.57
2023-05-22T02:49:30.733Z,10.52
2023-05-22T02:52:01.484Z,10.88
2023-05-22T02:54:29.754Z,10.55
2023-05-22T02:56:58.300Z,11.10
2023-05-22T02:59:26.789Z,11.02
2023-05-22T03:01:55.924Z,10.45
2023-05-22T03:04:25.263Z,10.95
2023-05-22T03:06:54.758Z,9.75
2023-05-22T03:09:24.407Z,10.57
2023-05-22T03:11:53.079Z,10.65
2023-05-22T03:14:21.390Z,10.63
2023-05-22T03:16:49.772Z,10.32
2023-05-22T03:19:18.740Z,10.63
2023-05-22T03:21:48.512Z,9.60
2023-05-22T03:24:17.332Z,9.50
2023-05-22T03:26:47.159Z,10.38
2023-05-22T03:29:21.660Z,10.57
2023-05-22T03:31:50.201Z,9.60
2023-05-22T03:34:18.580Z,10.05
2023-05-22T03:36:49.393Z,9.40
2023-05-22T03:39:18.627Z,9.30
2023-05-22T03:41:58.105Z,9.57
2023-05-22T03:44:28.339Z,10.15
2023-05-22T03:46:56.950Z,10.00
2023-05-22T03:49:25.228Z,10.02
2023-05-22T03:51:53.495Z,10.13
2023-05-22T03:54:23.052Z,10.30
2023-05-22T03:56:51.725Z,10.25
2023-05-22T03:59:22.434Z,9.88
2023-05-22T04:01:51.411Z,10.30
2023-05-22T04:04:19.659Z,9.60
2023-05-22T04:06:47.940Z,10.15
2023-05-22T04:09:16.595Z,9.93
2023-05-22T04:11:46.519Z,9.25
2023-05-22T04:14:14.749Z,9.82
2023-05-22T04:16:44.467Z,9.02
2023-05-22T04:19:14.110Z,9.77
2023-05-22T04:21:44.090Z,9.25
2023-05-22T04:24:12.447Z,9.20
2023-05-22T04:26:42.453Z,9.13
2023-05-22T04:29:14.465Z,10.32
2023-05-22T04:31:44.551Z,9.60
2023-05-22T04:34:13.976Z,9.52
2023-05-22T04:36:45.214Z,9.00
2023-05-22T04:39:14.189Z,9.32
2023-05-22T04:41:42.920Z,9.85
2023-05-22T04:44:11.452Z,10.27
2023-05-22T04:46:40.644Z,9.82
2023-05-22T04:49:11.407Z,9.05
2023-05-22T04:51:39.909Z,8.73
2023-05-22T04:54:08.195Z,8.52
2023-05-22T04:56:37.416Z,8.63
2023-05-22T04:59:08.977Z,8.55
2023-05-22T05:01:38.367Z,9.40
2023-05-22T05:04:06.902Z,8.80
2023-05-22T05:06:37.816Z,9.32
2023-05-22T05:09:07.135Z,8.57
2023-05-22T05:11:36.502Z,9.55
2023-05-22T05:14:05.259Z,9.07
2023-05-22T05:16:33.775Z,8.43
2023-05-22T05:19:02.215Z,8.13
2023-05-22T05:21:31.527Z,9.07
2023-05-22T05:24:03.578Z,12.77
2023-05-22T05:26:32.034Z,10.80
2023-05-22T05:29:00.469Z,9.57
2023-05-22T05:31:37.100Z,10.00
2023-05-22T05:34:21.747Z,9.25
2023-05-22T05:36:57.455Z,9.63
2023-05-22T05:39:28.523Z,9.38
2023-05-22T05:41:58.260Z,10.45
2023-05-22T05:44:26.841Z,10.75
2023-05-22T05:46:55.807Z,9.80
2023-05-22T05:49:24.197Z,10.50
2023-05-22T05:51:52.990Z,10.23
2023-05-22T05:54:23.225Z,9.48
2023-05-22T05:56:55.641Z,9.60
2023-05-22T05:59:25.682Z,8.88
2023-05-22T06:02:14.397Z,9.07
2023-05-22T06:04:43.333Z,9.07
2023-05-22T06:07:12.524Z,9.07
2023-05-22T06:09:53.068Z,9.85
2023-05-22T06:12:41.402Z,9.15
2023-05-22T06:15:13.196Z,9.80
2023-05-22T06:17:42.032Z,9.73
2023-05-22T06:20:10.943Z,9.73
2023-05-22T06:22:39.370Z,9.57
2023-05-22T06:25:09.838Z,9.93
2023-05-22T06:27:38.260Z,9.32
2023-05-22T06:30:10.065Z,8.73
2023-05-22T06:32:40.985Z,9.23
2023-05-22T06:35:11.906Z,10.27
2023-05-22T06:40:12.353Z,9.02
2023-05-22T06:42:50.719Z,9.27
2023-05-22T06:45:46.948Z,9.93
2023-05-22T06:48:20.925Z,9.98
2023-05-22T06:51:08.366Z,9.68
2023-05-22T06:53:40.361Z,9.60
2023-05-22T06:56:14.211Z,9.00
2023-05-22T06:58:52.545Z,8.07
2023-05-22T07:01:24.653Z,9.23
2023-05-22T07:04:09.771Z,9.10
2023-05-22T07:06:46.469Z,8.90
2023-05-22T07:09:15.661Z,9.00
2023-05-22T07:11:44.070Z,8.98
2023-05-22T07:14:13.872Z,9.45
2023-05-22T07:16:45.092Z,9.10
2023-05-22T07:19:15.914Z,9.63
2023-05-22T07:21:44.292Z,9.70
2023-05-22T07:24:15.258Z,9.75
2023-05-22T07:26:46.643Z,9.27
2023-05-22T07:29:15.822Z,9.05
2023-05-22T07:31:48.128Z,9.40
2023-05-22T07:34:17.527Z,10.55
2023-05-22T07:36:46.785Z,9.93
2023-05-22T07:39:15.530Z,10.32
2023-05-22T07:41:50.612Z,9.68
2023-05-22T07:44:20.274Z,10.13
2023-05-22T07:46:50.066Z,10.40
2023-05-22T07:49:23.580Z,10.45
2023-05-22T07:51:52.824Z,11.35
2023-05-22T07:54:23.166Z,11.43
2023-05-22T07:56:53.717Z,10.52
2023-05-22T07:59:25.528Z,10.63
2023-05-22T08:01:58.725Z,10.95
2023-05-22T08:04:27.665Z,10.73
2023-05-22T08:06:57.245Z,10.45
2023-05-22T08:09:25.514Z,10.93
2023-05-22T08:11:53.827Z,10.80
2023-05-22T08:14:22.883Z,11.27
2023-05-22T08:16:51.217Z,10.43
2023-05-22T08:19:21.088Z,9.77
2023-05-22T08:21:49.501Z,10.63
2023-05-22T08:24:17.846Z,10.38
2023-05-22T08:26:46.152Z,10.05
2023-05-22T08:29:14.686Z,10.77
2023-05-22T08:31:42.977Z,10.50
2023-05-22T08:34:11.287Z,10.77
2023-05-22T08:36:40.915Z,10.18
2023-05-22T08:39:10.948Z,11.38
2023-05-22T08:41:39.323Z,10.60
2023-05-22T08:44:07.748Z,10.30
2023-05-22T08:46:38.137Z,10.80
2023-05-22T08:49:06.994Z,10.40
2023-05-22T08:51:38.862Z,11.13
2023-05-22T08:54:09.802Z,10.88
2023-05-22T08:56:45.679Z,11.52
2023-05-22T08:59:22.887Z,11.48
2023-05-22T09:01:52.492Z,10.68
2023-05-22T09:04:23.733Z,11.10
2023-05-22T09:06:52.514Z,11.60
2023-05-22T09:09:22.363Z,11.65
2023-05-22T09:11:51.078Z,11.40
2023-05-22T09:14:20.229Z,12.23
2023-05-22T09:16:49.708Z,11.20
2023-05-22T09:19:18.277Z,11.52
2023-05-22T09:21:47.703Z,10.90
2023-05-22T09:24:16.481Z,10.80
2023-05-22T09:26:46.267Z,11.02
2023-05-22T09:29:14.515Z,11.10
2023-05-22T09:31:44.163Z,10.63
2023-05-22T09:34:15.854Z,11.63
2023-05-22T09:36:44.827Z,10.95
2023-05-22T09:39:13.301Z,10.68
2023-05-22T09:41:41.773Z,10.95
2023-05-22T09:44:18.158Z,11.40
2023-05-22T09:46:48.160Z,11.50
2023-05-22T09:49:17.594Z,11.63
2023-05-22T09:51:49.020Z,11.55
2023-05-22T09:54:19.616Z,11.68
2023-05-22T09:56:50.347Z,12.10
2023-05-22T09:59:23.592Z,11.15
2023-05-22T10:01:53.717Z,11.77
2023-05-22T10:04:24.364Z,11.43
2023-05-22T10:06:55.376Z,12.07
2023-05-22T10:09:30.733Z,11.63
2023-05-22T10:12:05.181Z,10.82
2023-05-22T10:14:36.672Z,11.57
2023-05-22T10:17:06.920Z,11.48
2023-05-22T10:19:39.696Z,10.98
2023-05-22T10:22:14.930Z,12.05
2023-05-22T10:24:44.722Z,10.70
2023-05-22T10:27:13.097Z,11.15
2023-05-22T10:29:50.772Z,11.43
2023-05-22T10:32:26.523Z,11.52
2023-05-22T10:35:09.891Z,11.30
2023-05-22T10:37:46.705Z,11.02
2023-05-22T10:40:19.558Z,11.45
2023-05-22T10:42:48.540Z,11.43
2023-05-22T10:45:18.235Z,10.88
2023-05-22T10:47:46.708Z,11.13
2023-05-22T10:50:15.131Z,10.85
2023-05-22T10:52:43.453Z,11.75
2023-05-22T10:55:12.603Z,11.23
2023-05-22T10:57:41.570Z,11.57
2023-05-22T11:00:12.110Z,10.77
2023-05-22T11:02:43.275Z,10.70
2023-05-22T11:05:35.490Z,10.52
2023-05-22T11:08:36.672Z,11.30
2023-05-22T11:11:13.973Z,11.02
2023-05-22T11:13:43.693Z,11.05
2023-05-22T11:16:12.453Z,11.80
2023-05-22T11:18:43.691Z,11.50
2023-05-22T11:21:13.941Z,11.43
2023-05-22T11:23:44.259Z,11.13
2023-05-22T11:26:20.276Z,11.98
2023-05-22T11:28:51.842Z,12.30
2023-05-22T11:31:22.880Z,11.50
2023-05-22T11:33:52.879Z,11.02
2023-05-22T11:36:22.005Z,11.55
2023-05-22T11:38:50.389Z,12.20
2023-05-22T11:41:18.795Z,11.23
2023-05-22T11:43:46.998Z,10.68
2023-05-22T11:46:15.834Z,11.38
2023-05-22T11:48:44.455Z,11.45
2023-05-22T11:51:14.118Z,11.15
2023-05-22T11:53:42.899Z,11.98
2023-05-22T11:56:11.356Z,11.52
2023-05-22T11:58:39.583Z,12.35
2023-05-22T12:01:07.834Z,11.93
2023-05-22T12:03:36.304Z,12.07
2023-05-22T12:06:06.192Z,11.82
2023-05-22T12:08:36.360Z,12.32
2023-05-22T12:11:07.462Z,13.00
2023-05-22T12:13:35.833Z,11.90
2023-05-22T12:16:18.478Z,12.55
2023-05-22T12:18:46.859Z,11.23
2023-05-22T12:21:15.264Z,12.18
2023-05-22T12:23:52.204Z,12.23
2023-05-22T12:26:21.673Z,12.10
2023-05-22T12:28:53.514Z,12.32
2023-05-22T12:31:22.892Z,11.70
2023-05-22T12:33:54.436Z,11.43
2023-05-22T12:36:32.618Z,12.85
2023-05-22T12:39:02.379Z,12.98
2023-05-22T12:41:30.799Z,13.05
2023-05-22T12:43:59.062Z,11.95
2023-05-22T12:46:27.352Z,12.07
2023-05-22T12:48:55.604Z,12.13
2023-05-22T12:51:24.527Z,12.88
2023-05-22T12:53:52.774Z,12.73
2023-05-22T12:56:22.883Z,12.43
2023-05-22T12:58:51.539Z,12.50
2023-05-22T13:01:20.565Z,12.60
2023-05-22T13:03:48.874Z,12.43
2023-05-22T13:06:17.251Z,11.82
2023-05-22T13:08:45.559Z,12.60
2023-05-22T13:11:14.006Z,11.93
2023-05-22T13:13:43.742Z,11.45
2023-05-22T13:16:12.308Z,11.85
2023-05-22T13:18:40.594Z,12.93
2023-05-22T13:21:08.851Z,11.20
2023-05-22T13:23:37.059Z,13.23
2023-05-22T13:26:05.510Z,11.43
2023-05-22T13:28:33.719Z,12.35
2023-05-22T13:31:03.457Z,12.90
2023-05-22T13:33:31.845Z,12.38
2023-05-22T13:36:00.281Z,12.98
2023-05-22T13:38:28.613Z,12.63
2023-05-22T13:40:56.974Z,13.63
2023-05-22T13:43:25.263Z,14.70
2023-05-22T13:45:53.694Z,13.27
2023-05-22T13:48:23.338Z,13.75
2023-05-22T13:50:51.701Z,13.77
2023-05-22T13:53:19.956Z,14.10
2023-05-22T13:55:48.270Z,13.45
2023-05-22T13:58:19.074Z,13.48
2023-05-22T14:00:47.573Z,14.07
2023-05-22T14:03:17.702Z,13.77
2023-05-22T14:05:47.669Z,13.38
2023-05-22T14:08:15.898Z,13.52
2023-05-22T14:10:44.192Z,13.45
2023-05-22T14:13:12.464Z,13.82
2023-05-22T14:15:41.199Z,13.52
2023-05-22T14:18:09.941Z,13.70
2023-05-22T14:20:38.204Z,13.05
2023-05-22T14:23:07.933Z,14.45
2023-05-22T14:25:36.294Z,13.65
2023-05-22T14:28:04.594Z,14.07
2023-05-22T14:30:32.836Z,13.73
2023-05-22T14:33:01.368Z,14.30
2023-05-22T14:35:29.635Z,13.90
2023-05-22T14:37:57.922Z,13.82
2023-05-22T14:40:27.596Z,13.20
2023-05-22T14:42:56.032Z,13.90
2023-05-22T14:45:24.558Z,12.38
2023-05-22T14:47:52.914Z,13.07
2023-05-22T14:50:21.587Z,12.40
2023-05-22T14:52:50.059Z,13.50
2023-05-22T14:55:18.758Z,14.18
2023-05-22T14:57:48.746Z,12.77
2023-05-22T15:00:17.893Z,12.13
2023-05-22T15:02:46.242Z,12.57
2023-05-22T15:05:14.856Z,11.48
2023-05-22T15:07:45.620Z,12.35
2023-05-22T15:10:15.229Z,12.27
2023-05-22T15:12:43.529Z,12.07
2023-05-22T15:15:13.453Z,12.05
2023-05-22T15:17:43.011Z,11.73
2023-05-22T15:20:12.518Z,11.32
2023-05-22T15:22:40.958Z,11.57
2023-05-22T15:25:11.780Z,11.45
2023-05-22T15:27:41.030Z,11.15
2023-05-22T15:30:11.396Z,10.80
2023-05-22T15:32:41.115Z,10.52
2023-05-22T15:35:13.853Z,10.63
2023-05-22T15:37:42.269Z,10.57
2023-05-22T15:40:12.448Z,9.80
2023-05-22T15:42:40.708Z,10.38
2023-05-22T15:45:10.066Z,10.07
2023-05-22T15:47:38.313Z,10.23
2023-05-22T15:50:08.932Z,9.88
2023-05-22T15:52:37.215Z,9.40
2023-05-22T15:55:06.498Z,8.80
2023-05-22T15:57:34.839Z,8.90
2023-05-22T16:00:03.273Z,8.85
2023-05-22T16:02:32.619Z,8.90
2023-05-22T16:05:00.858Z,9.55
2023-05-22T16:07:30.480Z,9.48
2023-05-22T16:09:58.749Z,9.15
2023-05-22T16:12:27.022Z,9.05
2023-05-22T16:15:00.141Z,8.77
2023-05-22T16:17:28.957Z,9.38
2023-05-22T16:19:57.249Z,8.43
2023-05-22T16:22:33.047Z,9.73
2023-05-22T16:25:11.430Z,8.80
2023-05-22T16:27:39.844Z,9.23
2023-05-22T16:30:09.215Z,8.60
2023-05-22T16:32:37.599Z,8.20
2023-05-22T16:35:06.644Z,9.15
2023-05-22T16:37:34.910Z,9.70
2023-05-22T16:40:03.501Z,8.68
2023-05-22T16:42:33.151Z,9.63
2023-05-22T16:45:01.429Z,8.60
2023-05-22T16:47:30.114Z,8.10
2023-05-22T16:49:58.521Z,8.75
2023-05-22T16:52:26.859Z,8.18
2023-05-22T16:54:55.385Z,8.20
2023-05-22T16:57:23.787Z,8.00
2023-05-22T16:59:54.247Z,8.25
2023-05-22T17:02:23.642Z,8.43
2023-05-22T17:04:52.109Z,7.70
2023-05-22T17:07:20.604Z,8.20
2023-05-22T17:09:48.847Z,7.97
2023-05-22T17:12:17.421Z,8.23
2023-05-22T17:14:45.830Z,8.65
2023-05-22T17:17:15.803Z,8.55
2023-05-22T17:19:44.049Z,123.88
2023-05-22T17:22:12.406Z,145.40
2023-05-22T17:24:40.680Z,177.82
2023-05-22T17:27:09.054Z,300.20
2023-05-22T17:29:37.390Z,218.02
2023-05-22T17:32:06.612Z,107.22
2023-05-22T17:34:36.275Z,133.70
2023-05-22T17:37:04.558Z,114.20
2023-05-22T17:39:32.786Z,125.38
2023-05-22T17:42:01.169Z,134.60
2023-05-22T17:44:30.833Z,126.88
2023-05-22T17:46:59.200Z,130.18
2023-05-22T17:49:27.424Z,125.20
2023-05-22T17:51:57.112Z,82.47
2023-05-22T17:54:25.422Z,111.28
2023-05-22T17:56:55.091Z,122.88
2023-05-22T17:59:23.451Z,110.32
2023-05-22T18:01:51.764Z,91.20
2023-05-22T18:04:20.062Z,90.35
2023-05-22T18:06:48.445Z,98.75
2023-05-22T18:09:18.058Z,111.78
2023-05-22T18:11:46.405Z,70.35
2023-05-22T18:14:14.978Z,65.70
2023-05-22T18:16:43.309Z,89.13
2023-05-22T18:19:11.851Z,89.88
2023-05-22T18:21:40.152Z,79.30
2023-05-22T18:24:09.034Z,85.90
2023-05-22T18:26:38.803Z,81.85
2023-05-22T18:29:07.202Z,76.40
2023-05-22T18:31:35.675Z,71.82
2023-05-22T18:34:04.113Z,71.53
2023-05-22T18:36:33.342Z,66.13
2023-05-22T18:39:01.636Z,59.28
2023-05-22T18:41:29.960Z,62.95
2023-05-22T18:43:59.686Z,47.92
2023-05-22T18:46:28.077Z,55.00
2023-05-22T18:48:56.759Z,45.22
2023-05-22T18:51:25.065Z,45.60
2023-05-22T18:53:53.610Z,40.17
2023-05-22T18:56:22.194Z,43.35
2023-05-22T18:58:50.614Z,41.13
2023-05-22T19:01:20.394Z,40.70
2023-05-22T19:03:48.780Z,37.67
2023-05-22T19:06:18.917Z,33.70
2023-05-22T19:08:47.316Z,34.72
2023-05-22T19:11:15.847Z,35.30
2023-05-22T19:13:45.139Z,35.53
2023-05-22T19:16:15.625Z,33.45
2023-05-22T19:18:45.542Z,33.05
2023-05-22T19:21:13.941Z,31.02
2023-05-22T19:23:42.961Z,27.70
2023-05-22T19:26:11.378Z,30.15
2023-05-22T19:28:39.865Z,28.73
2023-05-22T19:31:08.219Z,24.50
2023-05-22T19:33:36.575Z,25.73
2023-05-22T19:36:06.941Z,26.30
2023-05-22T19:38:35.215Z,26.92
2023-05-22T19:41:03.464Z,28.35
2023-05-22T19:43:31.809Z,26.27
2023-05-22T19:46:00.043Z,26.73
2023-05-22T19:48:29.874Z,21.92
2023-05-22T19:50:58.131Z,144.43
2023-05-22T19:53:27.835Z,80.05
2023-05-22T19:55:57.053Z,121.22
2023-05-22T19:58:25.704Z,148.38
2023-05-22T20:00:54.021Z,161.38
2023-05-22T20:03:23.266Z,176.15
2023-05-22T20:05:53.641Z,145.82
2023-05-22T20:08:23.294Z,116.28
2023-05-22T20:10:53.017Z,193.05
2023-05-22T20:13:21.293Z,220.45
2023-05-22T20:15:51.127Z,219.68
2023-05-22T20:18:20.800Z,236.25
2023-05-22T20:20:49.165Z,201.63
2023-05-22T20:23:17.421Z,180.38
2023-05-22T20:25:45.802Z,144.38
2023-05-22T20:28:15.474Z,121.68
2023-05-22T20:30:43.721Z,185.52
2023-05-22T20:33:12.343Z,238.23
2023-05-22T20:35:41.060Z,250.00
2023-05-22T20:38:10.011Z,253.05
2023-05-22T20:40:38.267Z,195.15
2023-05-22T20:43:06.647Z,173.77
2023-05-22T20:45:37.470Z,180.15
2023-05-22T20:48:05.960Z,150.37
2023-05-22T20:50:37.528Z,199.30
2023-05-22T20:53:08.450Z,254.57
2023-05-22T20:55:37.145Z,266.33
2023-05-22T20:58:05.482Z,300.13
2023-05-22T21:00:35.154Z,335.65
2023-05-22T21:03:03.617Z,365.58
2023-05-22T21:05:31.925Z,322.08
2023-05-22T21:08:00.274Z,281.55
2023-05-22T21:10:28.458Z,254.13
2023-05-22T21:12:56.732Z,239.15
2023-05-22T21:15:25.025Z,240.35
2023-05-22T21:17:54.632Z,237.23
2023-05-22T21:20:23.040Z,215.27
2023-05-22T21:22:51.317Z,188.15
2023-05-22T21:25:19.551Z,158.07
2023-05-22T21:27:48.411Z,149.45
2023-05-22T21:30:17.264Z,155.20
2023-05-22T21:32:45.536Z,132.65
2023-05-22T21:35:15.391Z,121.80
2023-05-22T21:37:43.669Z,102.00
2023-05-22T21:40:12.918Z,132.45
2023-05-22T21:42:46.736Z,115.45
2023-05-22T21:45:16.382Z,104.38
2023-05-22T21:47:44.798Z,100.88
2023-05-22T21:50:14.549Z,77.95
2023-05-22T21:52:44.257Z,81.72
2023-05-22T21:55:12.586Z,77.63
2023-05-22T21:57:40.929Z,71.57
2023-05-22T22:00:10.324Z,65.68
2023-05-22T22:02:38.577Z,58.38
2023-05-22T22:05:07.639Z,56.50
2023-05-22T22:07:37.397Z,50.90
2023-05-22T22:10:06.707Z,53.33
2023-05-22T22:12:34.943Z,45.85
2023-05-22T22:15:03.465Z,40.15
2023-05-22T22:17:31.701Z,30.67
2023-05-22T22:20:00.133Z,31.58
2023-05-22T22:22:28.449Z,29.17
2023-05-22T22:24:58.139Z,27.20
2023-05-22T22:27:26.510Z,23.15
2023-05-22T22:29:54.843Z,23.83
2023-05-22T22:32:23.113Z,20.25
2023-05-22T22:34:53.969Z,20.80
2023-05-22T22:37:22.591Z,20.33
2023-05-22T22:39:50.955Z,17.27
2023-05-22T22:42:20.849Z,19.92
2023-05-22T22:44:49.075Z,18.70
2023-05-22T22:47:17.369Z,18.70
2023-05-22T22:49:45.664Z,18.40
2023-05-22T22:52:13.961Z,17.38
2023-05-22T22:54:44.563Z,16.20
2023-05-22T22:57:13.122Z,15.30
2023-05-22T22:59:43.051Z,14.57
2023-05-22T23:02:11.395Z,14.43
2023-05-22T23:04:39.774Z,14.52
2023-05-22T23:07:08.644Z,14.10
2023-05-22T23:09:36.877Z,13.38
2023-05-22T23:12:06.393Z,13.77
2023-05-22T23:14:37.676Z,12.73
2023-05-22T23:17:07.398Z,13.52
2023-05-22T23:19:35.823Z,12.27
2023-05-22T23:22:04.177Z,12.95
2023-05-22T23:24:32.425Z,13.60
2023-05-22T23:27:01.084Z,12.65
2023-05-22T23:29:29.369Z,12.55
2023-05-22T23:31:57.721Z,12.70
2023-05-22T23:34:27.421Z,11.90
2023-05-22T23:36:55.688Z,12.90
2023-05-22T23:39:23.963Z,12.35
2023-05-22T23:41:54.194Z,11.75
2023-05-22T23:44:22.765Z,11.80
2023-05-22T23:46:51.189Z,12.27
2023-05-22T23:49:19.561Z,11.60
2023-05-22T23:51:49.190Z,11.98
2023-05-22T23:54:18.055Z,11.10
2023-05-22T23:56:46.781Z,11.48
2023-05-22T23:59:15.055Z,11.45
